Time;durP1;ratioP1;P1;durP2;ratioP2;P2;SDS_P1;SDS_P2;PMS_P1;PMS_P2;Temp;Humidity;BMP_temperature;BMP_pressure;BME280_temperature;BME280_humidity;BME280_pressure;Samples;Min_cycle;Max_cycle;Signal;HPM_P1;HPM_P2
2021/03/03 00:00:51;;;;;;;;;;;;;;;2.28;100.00;101374.53;5041249;28;20298;-88
2021/03/03 00:03:17;;;;;;;;;;;;;;;2.21;100.00;101363.94;5064170;28;19924;-87
2021/03/03 00:05:44;;;;;;;;;;;;;;;2.20;100.00;101362.28;5079815;28;20276;-88
2021/03/03 00:08:11;;;;;;;;;;;;;;;2.08;100.00;101363.97;5055844;28;19924;-88
2021/03/03 00:10:37;;;;;;;;;;;;;;;1.96;100.00;101364.53;5086560;28;20065;-89
2021/03/03 00:13:04;;;;;;;;;;;;;;;1.96;100.00;101366.47;5043266;28;19924;-88
2021/03/03 00:15:30;;;;;;;;;;;;;;;1.95;100.00;101359.31;5039689;28;19932;-88
2021/03/03 00:17:57;;;;;;;;;;;;;;;2.01;100.00;101360.84;5058399;28;20283;-88
2021/03/03 00:20:24;;;;;;;;;;;;;;;2.03;100.00;101364.09;5063870;28;19930;-88
2021/03/03 00:22:52;;;;;;;;;;;;;;;2.04;100.00;101362.97;5033348;28;19925;-89
2021/03/03 00:25:19;;;;;;;;;;;;;;;2.12;100.00;101359.47;5059900;28;20402;-87
2021/03/03 00:27:46;;;;;;;;;;;;;;;1.91;100.00;101359.13;5043567;28;19925;-87
2021/03/03 00:30:17;;;;;;;;;;;;;;;1.79;100.00;101348.66;5043126;28;19973;-88
2021/03/03 00:32:45;;;;;;;;;;;;;;;1.59;100.00;101335.31;5043950;28;19929;-87
2021/03/03 00:35:12;;;;;;;;;;;;;;;1.45;100.00;101329.00;5053881;28;20394;-88
2021/03/03 00:37:38;;;;;;;;;;;;;;;1.39;100.00;101329.44;5063183;28;20282;-88
2021/03/03 00:40:06;;;;;;;;;;;;;;;1.36;100.00;101325.34;5071713;28;20344;-88
2021/03/03 00:42:32;;;;;;;;;;;;;;;1.35;100.00;101326.50;5064053;28;19950;-88
2021/03/03 00:44:59;;;;;;;;;;;;;;;1.37;100.00;101324.25;5053395;28;19928;-88
2021/03/03 00:47:26;;;;;;;;;;;;;;;1.36;100.00;101314.34;5075034;28;19929;-88
2021/03/03 00:49:57;;;;;;;;;;;;;;;1.37;100.00;101321.50;5047297;28;19924;-88
2021/03/03 00:52:24;;;;;;;;;;;;;;;1.44;100.00;101321.88;5045504;28;20325;-89
2021/03/03 00:54:51;;;;;;;;;;;;;;;1.51;100.00;101335.25;5059171;28;20379;-88
2021/03/03 00:57:18;;;;;;;;;;;;;;;1.52;100.00;101334.94;5059554;28;19924;-88
2021/03/03 00:59:46;;;;;;;;;;;;;;;1.51;100.00;101338.00;5073449;28;19939;-88
2021/03/03 01:02:12;;;;;;;;;;;;;;;1.51;100.00;101341.59;5059561;28;19955;-87
2021/03/03 01:04:39;;;;;;;;;;;;;;;1.55;100.00;101345.34;5056981;28;19932;-88
2021/03/03 01:07:06;;;;;;;;;;;;;;;1.62;100.00;101351.25;5069629;28;19931;-88
2021/03/03 01:09:35;;;;;;;;;;;;;;;1.56;100.00;101351.69;5084991;28;19986;-89
2021/03/03 01:12:02;;;;;;;;;;;;;;;1.52;100.00;101351.47;5057294;28;20395;-88
2021/03/03 01:14:31;;;;;;;;;;;;;;;1.59;100.00;101357.38;5078324;28;19924;-88
2021/03/03 01:16:58;;;;;;;;;;;;;;;1.62;100.00;101370.53;5045881;28;19931;-89
2021/03/03 01:19:36;;;;;;;;;;;;;;;1.72;100.00;101373.09;5045072;28;20392;-88
2021/03/03 01:22:09;;;;;;;;;;;;;;;1.80;100.00;101382.56;5088879;28;20291;-89
2021/03/03 01:24:36;;;;;;;;;;;;;;;1.83;100.00;101381.94;5065221;28;19966;-89
2021/03/03 01:27:03;;;;;;;;;;;;;;;1.79;100.00;101367.94;5062743;28;19924;-87
2021/03/03 01:29:29;;;;;;;;;;;;;;;1.79;100.00;101367.94;5086633;28;19980;-86
2021/03/03 01:31:56;;;;;;;;;;;;;;;1.85;100.00;101365.88;5068072;28;19957;-87
2021/03/03 01:34:23;;;;;;;;;;;;;;;1.69;100.00;101364.59;5059259;28;20097;-87
2021/03/03 01:36:50;;;;;;;;;;;;;;;1.57;100.00;101365.16;5079019;28;20447;-87
2021/03/03 01:39:17;;;;;;;;;;;;;;;1.56;100.00;101363.50;5060833;28;20444;-87
2021/03/03 01:41:43;;;;;;;;;;;;;;;1.53;100.00;101364.13;5078640;28;19931;-87
2021/03/03 01:44:10;;;;;;;;;;;;;;;1.58;100.00;101352.16;5082114;28;20064;-87
2021/03/03 01:46:37;;;;;;;;;;;;;;;1.68;100.00;101355.50;5072316;28;20388;-87
2021/03/03 01:49:04;;;;;;;;;;;;;;;1.62;100.00;101351.25;5075925;28;19931;-88
2021/03/03 01:51:31;;;;;;;;;;;;;;;1.56;100.00;101352.47;5082639;28;19923;-88
2021/03/03 01:53:58;;;;;;;;;;;;;;;1.33;100.00;101337.00;5048560;28;19977;-88
2021/03/03 01:56:25;;;;;;;;;;;;;;;1.16;100.00;101347.00;5046186;28;19924;-87
2021/03/03 01:58:53;;;;;;;;;;;;;;;1.36;100.00;101354.88;5094637;28;19923;-87
2021/03/03 02:01:20;;;;;;;;;;;;;;;1.47;100.00;101359.03;5095988;28;20076;-87
2021/03/03 02:03:47;;;;;;;;;;;;;;;1.48;100.00;101353.22;5087688;28;19927;-87
2021/03/03 02:06:14;;;;;;;;;;;;;;;1.41;100.00;101355.56;5059086;28;20357;-87
2021/03/03 02:08:46;;;;;;;;;;;;;;;1.37;100.00;101353.72;5019193;28;20011;-87
2021/03/03 02:11:22;;;;;;;;;;;;;;;1.28;100.00;101353.66;5024774;28;19927;-88
2021/03/03 02:13:51;;;;;;;;;;;;;;;1.18;100.00;101339.28;5025602;28;20283;-87
2021/03/03 02:16:19;;;;;;;;;;;;;;;1.12;100.00;101335.78;5071912;28;19977;-87
2021/03/03 02:18:47;;;;;;;;;;;;;;;1.13;100.00;101336.59;5066286;28;20282;-87
2021/03/03 02:21:33;;;;;;;;;;;;;;;1.13;100.00;101336.59;5052501;28;19929;-87
2021/03/03 02:24:03;;;;;;;;;;;;;;;1.12;100.00;101324.78;5068602;28;20390;-87
2021/03/03 02:26:34;;;;;;;;;;;;;;;1.17;100.00;101332.94;5042792;28;19924;-87
2021/03/03 02:29:02;;;;;;;;;;;;;;;1.19;100.00;101324.38;5069283;28;19973;-87
2021/03/03 02:31:37;;;;;;;;;;;;;;;1.34;100.00;101319.34;5033233;28;19925;-88
2021/03/03 02:34:04;;;;;;;;;;;;;;;1.27;100.00;101321.69;5062039;28;19924;-87
2021/03/03 02:36:31;;;;;;;;;;;;;;;1.08;100.00;101323.75;5050726;28;19924;-86
2021/03/03 02:38:59;;;;;;;;;;;;;;;1.09;100.00;101313.56;5038376;28;19924;-86
2021/03/03 02:41:26;;;;;;;;;;;;;;;1.04;100.00;101317.25;5065971;28;19924;-87
2021/03/03 02:43:53;;;;;;;;;;;;;;;1.10;100.00;101316.03;5041754;28;20371;-86
2021/03/03 02:46:20;;;;;;;;;;;;;;;1.12;100.00;101319.25;5070579;28;19928;-87
2021/03/03 02:48:47;;;;;;;;;;;;;;;1.15;100.00;101321.41;5054301;28;19931;-88
2021/03/03 02:51:14;;;;;;;;;;;;;;;1.10;100.00;101316.03;5043948;28;19952;-87
2021/03/03 02:53:41;;;;;;;;;;;;;;;1.01;100.00;101309.59;5077407;28;20053;-87
2021/03/03 02:56:08;;;;;;;;;;;;;;;1.02;100.00;101302.97;5024398;28;19931;-87
2021/03/03 02:58:35;;;;;;;;;;;;;;;1.04;100.00;101311.75;5051204;28;19939;-87
2021/03/03 03:01:02;;;;;;;;;;;;;;;1.04;100.00;101300.72;5042612;28;19982;-88
2021/03/03 03:03:41;;;;;;;;;;;;;;;1.01;100.00;101301.34;5051982;28;19924;-87
2021/03/03 03:06:09;;;;;;;;;;;;;;;1.01;100.00;101284.00;5038573;28;19928;-87
2021/03/03 03:08:37;;;;;;;;;;;;;;;0.95;100.00;101294.31;5050841;28;19924;-87
2021/03/03 03:11:06;;;;;;;;;;;;;;;0.98;100.00;101293.69;5048385;28;20210;-87
2021/03/03 03:13:33;;;;;;;;;;;;;;;0.97;100.00;101300.31;5059895;28;19970;-87
2021/03/03 03:16:01;;;;;;;;;;;;;;;1.02;100.00;101294.69;5059994;28;19924;-87
2021/03/03 03:18:30;;;;;;;;;;;;;;;0.95;100.00;101286.03;5046511;28;19924;-87
2021/03/03 03:20:57;;;;;;;;;;;;;;;0.92;100.00;101292.16;5062768;28;19958;-88
2021/03/03 03:23:24;;;;;;;;;;;;;;;0.96;100.00;101286.84;5050655;28;20057;-87
2021/03/03 03:25:52;;;;;;;;;;;;;;;0.95;100.00;101283.28;5073076;28;19924;-87
2021/03/03 03:28:19;;;;;;;;;;;;;;;0.92;100.00;101286.66;5059842;28;20431;-86
2021/03/03 03:30:46;;;;;;;;;;;;;;;0.92;100.00;101283.91;5076751;28;19954;-86
2021/03/03 03:33:13;;;;;;;;;;;;;;;0.94;100.00;101280.84;5053839;28;19924;-88
2021/03/03 03:35:40;;;;;;;;;;;;;;;0.87;100.00;101283.19;5035916;28;20290;-87
2021/03/03 03:38:06;;;;;;;;;;;;;;;0.77;100.00;101280.63;5058237;28;19925;-87
2021/03/03 03:40:33;;;;;;;;;;;;;;;0.77;100.00;101281.47;5050736;28;20035;-86
2021/03/03 03:43:01;;;;;;;;;;;;;;;0.71;100.00;101274.41;5062102;28;20394;-87
2021/03/03 03:45:28;;;;;;;;;;;;;;;0.78;100.00;101280.34;5094659;28;20291;-86
2021/03/03 03:47:55;;;;;;;;;;;;;;;0.78;100.00;101285.84;5043335;28;19924;-87
2021/03/03 03:50:23;;;;;;;;;;;;;;;0.70;100.00;101280.22;5069035;28;20256;-87
2021/03/03 03:52:53;;;;;;;;;;;;;;;0.67;100.00;101291.81;5050622;28;19925;-86
2021/03/03 03:55:19;;;;;;;;;;;;;;;0.71;100.00;101285.41;5098463;28;19924;-88
2021/03/03 03:57:50;;;;;;;;;;;;;;;0.77;100.00;101284.22;5044298;28;20501;-87
2021/03/03 04:00:19;;;;;;;;;;;;;;;0.71;100.00;101285.41;5097352;28;19949;-87
2021/03/03 04:02:47;;;;;;;;;;;;;;;0.79;100.00;101287.47;5060456;28;20322;-87
2021/03/03 04:05:14;;;;;;;;;;;;;;;0.78;100.00;101280.34;5063990;28;19908;-87
2021/03/03 04:07:41;;;;;;;;;;;;;;;0.88;100.00;101284.81;5072991;28;19982;-87
2021/03/03 04:10:10;;;;;;;;;;;;;;;0.92;100.00;101288.59;5065516;28;20383;-87
2021/03/03 04:12:36;;;;;;;;;;;;;;;0.92;100.00;101296.84;5067040;28;19924;-87
2021/03/03 04:15:03;;;;;;;;;;;;;;;0.94;100.00;101292.66;5069209;28;20021;-87
2021/03/03 04:17:30;;;;;;;;;;;;;;;0.99;100.00;101295.31;5066906;28;19928;-87
2021/03/03 04:19:57;;;;;;;;;;;;;;;0.98;100.00;101290.94;5108114;28;19923;-87
2021/03/03 04:22:23;;;;;;;;;;;;;;;0.96;100.00;101276.66;5049515;28;19930;-87
2021/03/03 04:24:50;;;;;;;;;;;;;;;0.96;100.00;101275.84;5080380;28;19935;-87
2021/03/03 04:27:17;;;;;;;;;;;;;;;0.97;100.00;101278.28;5062820;28;19938;-87
2021/03/03 04:29:43;;;;;;;;;;;;;;;0.98;100.00;101282.69;5100467;28;19924;-87
2021/03/03 04:32:11;;;;;;;;;;;;;;;1.04;100.00;101289.72;5069076;28;20326;-86
2021/03/03 04:34:37;;;;;;;;;;;;;;;1.11;100.00;101301.13;5076509;28;19969;-86
2021/03/03 04:37:04;;;;;;;;;;;;;;;1.00;100.00;101293.38;5092513;28;19923;-86
2021/03/03 04:39:31;;;;;;;;;;;;;;;1.04;100.00;101286.97;5064837;28;19924;-86
2021/03/03 04:41:57;;;;;;;;;;;;;;;0.95;100.00;101291.56;5074025;28;20018;-86
2021/03/03 04:44:24;;;;;;;;;;;;;;;0.90;100.00;101288.91;5082251;28;20370;-86
2021/03/03 04:46:50;;;;;;;;;;;;;;;0.88;100.00;101287.56;5099731;28;19963;-86
2021/03/03 04:49:17;;;;;;;;;;;;;;;0.88;100.00;101280.13;5080228;28;19931;-87
2021/03/03 04:51:43;;;;;;;;;;;;;;;0.85;100.00;101282.69;5100038;28;20004;-86
2021/03/03 04:54:10;;;;;;;;;;;;;;;0.84;100.00;101278.28;5086178;28;19935;-86
2021/03/03 04:56:37;;;;;;;;;;;;;;;0.92;100.00;101281.16;5064886;28;19974;-86
2021/03/03 04:59:03;;;;;;;;;;;;;;;0.91;100.00;101278.72;5066220;28;19932;-87
2021/03/03 05:01:33;;;;;;;;;;;;;;;0.81;100.00;101270.63;5084916;28;19927;-87
2021/03/03 05:04:00;;;;;;;;;;;;;;;0.89;100.00;101272.69;5088610;28;19977;-86
2021/03/03 05:06:26;;;;;;;;;;;;;;;0.67;100.00;101267.88;5064529;28;19924;-86
2021/03/03 05:08:53;;;;;;;;;;;;;;;0.51;100.00;101244.56;5090292;28;20341;-86
2021/03/03 05:11:21;;;;;;;;;;;;;;;0.52;100.00;101250.84;5062767;28;20105;-86
2021/03/03 05:13:48;;;;;;;;;;;;;;;0.59;100.00;101252.06;5082593;28;19924;-86
2021/03/03 05:16:15;;;;;;;;;;;;;;;0.61;100.00;101249.84;5092262;28;19986;-87
2021/03/03 05:18:42;;;;;;;;;;;;;;;0.66;100.00;101247.00;5082164;28;20015;-87
2021/03/03 05:21:09;;;;;;;;;;;;;;;0.70;100.00;101250.75;5074696;28;19930;-87
2021/03/03 05:23:36;;;;;;;;;;;;;;;0.64;100.00;101253.91;5076438;28;19924;-87
2021/03/03 05:26:04;;;;;;;;;;;;;;;0.53;100.00;101245.03;5084372;28;20006;-87
2021/03/03 05:28:31;;;;;;;;;;;;;;;0.60;100.00;101245.47;5065757;28;19938;-86
2021/03/03 05:30:58;;;;;;;;;;;;;;;0.58;100.00;101239.44;5084489;28;19924;-87
2021/03/03 05:33:28;;;;;;;;;;;;;;;0.60;100.00;101245.47;5062373;28;19931;-86
2021/03/03 05:35:56;;;;;;;;;;;;;;;0.58;100.00;101236.69;5081632;28;19923;-86
2021/03/03 05:38:23;;;;;;;;;;;;;;;0.58;100.00;101236.69;5089254;28;20291;-86
2021/03/03 05:40:50;;;;;;;;;;;;;;;0.61;100.00;101238.84;5044990;28;20401;-87
2021/03/03 05:43:17;;;;;;;;;;;;;;;0.56;100.00;101241.69;5032754;28;19928;-86
2021/03/03 05:45:45;;;;;;;;;;;;;;;0.55;100.00;101234.56;5061729;28;19924;-86
2021/03/03 05:48:18;;;;;;;;;;;;;;;0.64;100.00;101242.91;5067723;28;19927;-87
2021/03/03 05:50:47;;;;;;;;;;;;;;;0.60;100.00;101237.22;5115587;28;19928;-87
2021/03/03 05:53:14;;;;;;;;;;;;;;;0.51;100.00;101230.81;5067657;28;19923;-86
2021/03/03 05:55:41;;;;;;;;;;;;;;;0.47;100.00;101235.25;5082150;28;19961;-86
2021/03/03 05:58:08;;;;;;;;;;;;;;;0.60;100.00;101239.97;5084224;28;19931;-87
2021/03/03 06:00:35;;;;;;;;;;;;;;;0.75;100.00;101241.59;5071207;28;19924;-86
2021/03/03 06:03:03;;;;;;;;;;;;;;;0.74;100.00;101242.72;5094556;28;19924;-86
2021/03/03 06:05:31;;;;;;;;;;;;;;;0.46;100.00;101225.38;5089725;28;19974;-86
2021/03/03 06:07:58;;;;;;;;;;;;;;;0.41;100.00;101219.97;5077770;28;20387;-86
2021/03/03 06:10:25;;;;;;;;;;;;;;;0.50;100.00;101222.84;5044470;28;20001;-86
2021/03/03 06:12:52;;;;;;;;;;;;;;;0.55;100.00;101209.81;5061370;28;20267;-86
2021/03/03 06:15:18;;;;;;;;;;;;;;;0.59;100.00;101221.81;5065742;28;20321;-86
2021/03/03 06:17:45;;;;;;;;;;;;;;;0.45;100.00;101218.25;5090143;28;19981;-87
2021/03/03 06:20:12;;;;;;;;;;;;;;;0.15;100.00;101191.34;5080975;28;19927;-86
2021/03/03 06:22:39;;;;;;;;;;;;;;;0.12;100.00;101202.13;5077687;28;20410;-86
2021/03/03 06:25:19;;;;;;;;;;;;;;;0.28;100.00;101209.78;5061092;28;19928;-86
2021/03/03 06:27:45;;;;;;;;;;;;;;;0.32;100.00;101213.56;5074923;28;19931;-86
2021/03/03 06:30:13;;;;;;;;;;;;;;;0.37;100.00;101213.47;5061274;28;19931;-86
2021/03/03 06:32:52;;;;;;;;;;;;;;;0.38;100.00;101217.84;5081970;28;19949;-86
2021/03/03 06:35:19;;;;;;;;;;;;;;;0.15;100.00;101213.34;5080789;28;19931;-85
2021/03/03 06:37:56;;;;;;;;;;;;;;;0.01;100.00;101201.50;5083692;28;19924;-86
2021/03/03 06:40:23;;;;;;;;;;;;;;;-0.07;100.00;101194.78;5080826;28;19927;-87
2021/03/03 06:42:50;;;;;;;;;;;;;;;-0.11;100.00;101195.69;5080079;28;19969;-86
2021/03/03 06:45:30;;;;;;;;;;;;;;;-0.11;100.00;101207.47;5076802;28;20023;-86
2021/03/03 06:48:00;;;;;;;;;;;;;;;0.03;100.00;101212.19;5094090;28;19927;-84
2021/03/03 06:50:33;;;;;;;;;;;;;;;-0.04;100.00;101207.09;5080263;28;19924;-80
2021/03/03 06:53:00;;;;;;;;;;;;;;;-0.05;100.00;101205.47;5103907;28;19939;-81
2021/03/03 06:55:47;;;;;;;;;;;;;;;-0.05;100.00;101206.25;5038694;28;19925;-82
2021/03/03 06:58:30;;;;;;;;;;;;;;;-0.03;100.00;101211.44;5048736;28;19930;-81
2021/03/03 07:00:59;;;;;;;;;;;;;;;-0.03;100.00;101226.03;5103663;28;19931;-82
2021/03/03 07:03:33;;;;;;;;;;;;;;;0.13;100.00;101234.81;5079516;28;19955;-81
2021/03/03 07:06:03;;;;;;;;;;;;;;;0.14;100.00;101239.19;5087464;28;19930;-82
2021/03/03 07:08:30;;;;;;;;;;;;;;;0.15;100.00;101243.59;5101696;28;19928;-83
2021/03/03 07:10:57;;;;;;;;;;;;;;;0.22;100.00;101257.75;5103600;28;19927;-84
2021/03/03 07:13:37;;;;;;;;;;;;;;;0.17;100.00;101268.81;5074123;28;20025;-84
2021/03/03 07:16:04;;;;;;;;;;;;;;;0.09;100.00;101272.28;5093822;28;19931;-83
2021/03/03 07:18:32;;;;;;;;;;;;;;;0.16;100.00;101280.13;5100077;28;20445;-82
2021/03/03 07:21:00;;;;;;;;;;;;;;;0.12;100.00;101282.69;5051078;28;20378;-82
2021/03/03 07:23:44;;;;;;;;;;;;;;;0.19;100.00;101291.34;5063823;28;19993;-83
2021/03/03 07:26:12;;;;;;;;;;;;;;;0.23;100.00;101300.63;5080592;28;19928;-83
2021/03/03 07:28:40;;;;;;;;;;;;;;;0.15;100.00;101308.75;5111407;28;19973;-83
2021/03/03 07:31:07;;;;;;;;;;;;;;;0.04;100.00;101302.59;5105921;28;20286;-83
2021/03/03 07:33:33;;;;;;;;;;;;;;;0.06;100.00;101310.56;5064159;28;19924;-83
2021/03/03 07:36:02;;;;;;;;;;;;;;;0.03;100.00;101311.97;5075115;28;19985;-83
2021/03/03 07:38:33;;;;;;;;;;;;;;;0.02;100.00;101326.81;5085784;28;19930;-83
2021/03/03 07:41:04;;;;;;;;;;;;;;;0.07;100.00;101332.25;5077787;28;20015;-81
2021/03/03 07:43:31;;;;;;;;;;;;;;;0.06;100.00;101341.63;5111814;28;19952;-81
2021/03/03 07:46:00;;;;;;;;;;;;;;;0.05;100.00;101356.47;5077811;28;20370;-82
2021/03/03 07:48:28;;;;;;;;;;;;;;;0.07;100.00;101367.97;5092950;28;19924;-82
2021/03/03 07:50:54;;;;;;;;;;;;;;;0.18;100.00;101391.47;5095150;28;20025;-82
2021/03/03 07:53:21;;;;;;;;;;;;;;;0.23;100.00;101418.84;5114041;28;20363;-82
2021/03/03 07:55:48;;;;;;;;;;;;;;;0.26;100.00;101429.25;5095638;28;20017;-82
2021/03/03 07:58:15;;;;;;;;;;;;;;;0.32;100.00;101458.31;5101027;28;19927;-83
2021/03/03 08:00:43;;;;;;;;;;;;;;;0.34;100.00;101472.59;5114034;28;20016;-82
2021/03/03 08:03:10;;;;;;;;;;;;;;;0.28;100.00;101495.78;5073522;28;20262;-82
2021/03/03 08:05:49;;;;;;;;;;;;;;;0.28;100.00;101520.53;5078849;28;19971;-83
2021/03/03 08:08:33;;;;;;;;;;;;;;;0.31;100.00;101547.47;5092187;28;20019;-83
2021/03/03 08:11:00;;;;;;;;;;;;;;;0.35;100.00;101576.00;5065440;28;19991;-83
2021/03/03 08:13:36;;;;;;;;;;;;;;;0.40;100.00;101606.19;5057637;28;19932;-83
2021/03/03 08:16:04;;;;;;;;;;;;;;;0.47;100.00;101619.59;5066621;28;20421;-83
2021/03/03 08:18:57;;;;;;;;;;;;;;;0.48;100.00;101652.31;5039103;28;20398;-83
2021/03/03 08:21:28;;;;;;;;;;;;;;;0.57;100.00;101679.97;5048069;28;20007;-80
2021/03/03 08:23:55;;;;;;;;;;;;;;;0.59;100.00;101708.84;5092991;28;20287;-81
2021/03/03 08:26:22;;;;;;;;;;;;;;;0.72;100.00;101743.09;5075073;28;19924;-82
2021/03/03 08:28:49;;;;;;;;;;;;;;;0.70;100.00;101842.47;5075483;28;20314;-85
2021/03/03 08:31:16;;;;;;;;;;;;;;;0.72;100.00;101865.00;5039655;28;19968;-82
2021/03/03 08:33:49;;;;;;;;;;;;;;;0.70;100.00;101869.97;5071242;28;20482;-82
2021/03/03 08:36:29;;;;;;;;;;;;;;;0.68;100.00;101880.44;5058679;28;19931;-82
2021/03/03 08:38:55;;;;;;;;;;;;;;;0.69;100.00;101879.34;5093719;28;20329;-82
2021/03/03 08:41:25;;;;;;;;;;;;;;;0.69;100.00;101909.63;5093745;28;19947;-81
2021/03/03 08:44:11;;;;;;;;;;;;;;;0.75;100.00;101907.66;5093612;28;19964;-82
2021/03/03 08:46:39;;;;;;;;;;;;;;;0.79;100.00;101909.53;5066466;28;20372;-82
2021/03/03 08:49:05;;;;;;;;;;;;;;;0.84;100.00;101894.88;5090287;28;20043;-82
2021/03/03 08:51:32;;;;;;;;;;;;;;;0.87;100.00;101900.63;5075003;28;19930;-82
2021/03/03 08:54:01;;;;;;;;;;;;;;;0.93;100.00;101898.66;5078630;28;19931;-82
2021/03/03 08:56:38;;;;;;;;;;;;;;;1.04;100.00;101900.19;5038119;28;20379;-82
2021/03/03 08:59:08;;;;;;;;;;;;;;;1.05;100.00;101894.38;5069938;28;20298;-82
2021/03/03 09:01:54;;;;;;;;;;;;;;;1.11;100.00;101895.97;5081078;28;19924;-82
2021/03/03 09:04:31;;;;;;;;;;;;;;;1.24;100.00;101899.97;5092811;28;19924;-82
2021/03/03 09:07:00;;;;;;;;;;;;;;;1.26;100.00;101898.53;5093724;28;20310;-82
2021/03/03 09:09:27;;;;;;;;;;;;;;;1.29;100.00;101892.44;5084600;28;19949;-82
2021/03/03 09:11:58;;;;;;;;;;;;;;;1.30;100.00;101894.06;5086712;28;19928;-81
2021/03/03 09:14:24;;;;;;;;;;;;;;;1.34;100.00;101889.63;5084260;28;20013;-82
2021/03/03 09:16:52;;;;;;;;;;;;;;;1.32;100.00;101891.03;5088250;28;19925;-82
2021/03/03 09:19:19;;;;;;;;;;;;;;;1.45;100.00;101891.13;5084504;28;20357;-80
2021/03/03 09:21:45;;;;;;;;;;;;;;;1.58;100.00;101884.06;5094324;28;20382;-80
2021/03/03 09:24:13;;;;;;;;;;;;;;;1.70;100.00;101893.56;5077698;28;20268;-80
2021/03/03 09:26:39;;;;;;;;;;;;;;;1.86;100.00;101891.41;5094551;28;19924;-81
2021/03/03 09:29:06;;;;;;;;;;;;;;;1.92;100.00;101900.41;5058498;28;20425;-81
2021/03/03 09:31:34;;;;;;;;;;;;;;;2.11;100.00;101884.66;5083023;28;19930;-80
2021/03/03 09:34:01;;;;;;;;;;;;;;;2.15;100.00;101886.53;5086639;28;19928;-80
2021/03/03 09:36:28;;;;;;;;;;;;;;;2.20;100.00;101882.88;5094842;28;19924;-78
2021/03/03 09:38:56;;;;;;;;;;;;;;;2.18;100.00;101877.66;5094760;28;19928;-78
2021/03/03 09:41:24;;;;;;;;;;;;;;;2.28;100.00;101884.97;5089937;28;19927;-78
2021/03/03 09:44:00;;;;;;;;;;;;;;;2.24;100.00;101881.16;5094385;28;20383;-81
2021/03/03 09:46:27;;;;;;;;;;;;;;;2.25;100.00;101882.78;5069042;28;20424;-79
2021/03/03 09:48:53;;;;;;;;;;;;;;;2.31;100.00;101884.34;5094172;28;19924;-79
2021/03/03 09:51:20;;;;;;;;;;;;;;;1.73;100.00;101881.09;5067617;28;19929;-80
2021/03/03 09:53:52;;;;;;;;;;;;;;;1.66;100.00;101875.97;5093380;28;19924;-80
2021/03/03 09:56:30;;;;;;;;;;;;;;;1.56;100.00;101878.06;5095139;28;19932;-83
2021/03/03 09:58:57;;;;;;;;;;;;;;;1.60;100.00;101871.66;5076850;28;19924;-79
2021/03/03 10:01:25;;;;;;;;;;;;;;;1.74;100.00;101871.75;5077831;28;19924;-76
2021/03/03 10:03:53;;;;;;;;;;;;;;;1.84;100.00;101874.34;5072727;28;19929;-77
2021/03/03 10:06:20;;;;;;;;;;;;;;;1.91;100.00;101868.47;5087146;28;19924;-76
2021/03/03 10:08:48;;;;;;;;;;;;;;;1.88;100.00;101877.31;5102258;28;19928;-76
2021/03/03 10:11:15;;;;;;;;;;;;;;;1.92;100.00;101872.84;5075816;28;19927;-76
2021/03/03 10:13:41;;;;;;;;;;;;;;;2.03;100.00;101874.34;5075412;28;20014;-76
2021/03/03 10:16:15;;;;;;;;;;;;;;;2.13;100.00;101875.00;5104706;28;19924;-76
2021/03/03 10:19:14;;;;;;;;;;;;;;;2.17;100.00;101886.22;5111161;28;19924;-76
2021/03/03 10:21:45;;;;;;;;;;;;;;;2.23;100.00;101874.03;5044954;28;19924;-76
2021/03/03 10:24:19;;;;;;;;;;;;;;;2.19;100.00;101895.03;5098998;28;19927;-76
2021/03/03 10:26:46;;;;;;;;;;;;;;;2.23;100.00;101885.84;5101824;28;19928;-76
2021/03/03 10:29:29;;;;;;;;;;;;;;;2.27;100.00;101881.41;5106020;28;20472;-76
2021/03/03 10:32:09;;;;;;;;;;;;;;;2.33;100.00;101890.41;5101698;28;19946;-76
2021/03/03 10:34:35;;;;;;;;;;;;;;;2.46;100.00;101895.13;5097237;28;20283;-76
2021/03/03 10:37:02;;;;;;;;;;;;;;;2.38;100.00;101888.38;5105835;28;19981;-77
2021/03/03 10:39:29;;;;;;;;;;;;;;;2.42;100.00;101891.34;5091509;28;19928;-77
2021/03/03 10:42:00;;;;;;;;;;;;;;;2.53;100.00;101887.31;5090724;28;19923;-77
2021/03/03 10:44:36;;;;;;;;;;;;;;;2.68;100.00;101885.06;5067014;28;19924;-77
2021/03/03 10:47:03;;;;;;;;;;;;;;;2.73;100.00;101884.16;5102271;28;19931;-77
2021/03/03 10:49:29;;;;;;;;;;;;;;;2.71;100.00;101880.91;5081510;28;20273;-78
2021/03/03 10:51:56;;;;;;;;;;;;;;;2.84;100.00;101880.09;5089381;28;20010;-77
2021/03/03 10:54:29;;;;;;;;;;;;;;;2.85;100.00;101881.72;5107293;28;19969;-77
2021/03/03 10:57:03;;;;;;;;;;;;;;;2.75;100.00;101887.44;5078027;28;19924;-77
2021/03/03 10:59:30;;;;;;;;;;;;;;;2.83;100.00;101886.75;5090963;28;19966;-80
2021/03/03 11:01:58;;;;;;;;;;;;;;;2.87;100.00;101882.25;5102261;28;19924;-78
2021/03/03 11:04:57;;;;;;;;;;;;;;;2.82;100.00;101883.16;5102928;28;19931;-79
2021/03/03 11:07:26;;;;;;;;;;;;;;;2.44;100.00;101872.56;5037391;28;19924;-79
2021/03/03 11:09:53;;;;;;;;;;;;;;;2.29;100.00;101878.34;5092096;28;20018;-79
2021/03/03 11:12:21;;;;;;;;;;;;;;;2.37;100.00;101877.63;5109778;28;19927;-76
2021/03/03 11:14:48;;;;;;;;;;;;;;;2.16;100.00;101873.56;5090917;28;19928;-77
2021/03/03 11:17:14;;;;;;;;;;;;;;;2.39;100.00;101875.41;5091986;28;20674;-76
2021/03/03 11:19:41;;;;;;;;;;;;;;;2.58;100.00;101876.16;5109095;28;19928;-76
2021/03/03 11:22:07;;;;;;;;;;;;;;;2.91;100.00;101889.63;5109565;28;19946;-77
2021/03/03 11:24:34;;;;;;;;;;;;;;;2.76;100.00;101889.91;5110061;28;19923;-79
2021/03/03 11:27:01;;;;;;;;;;;;;;;2.76;100.00;101884.38;5109745;28;19963;-76
2021/03/03 11:29:27;;;;;;;;;;;;;;;2.77;100.00;101879.69;5091641;28;19924;-77
2021/03/03 11:32:00;;;;;;;;;;;;;;;2.52;100.00;101869.91;5109810;28;19924;-77
2021/03/03 11:34:27;;;;;;;;;;;;;;;2.69;100.00;101866.56;5108491;28;20015;-76
2021/03/03 11:36:54;;;;;;;;;;;;;;;2.88;100.00;101881.13;5109591;28;20393;-75
2021/03/03 11:39:20;;;;;;;;;;;;;;;2.84;100.00;101875.41;5110004;28;19984;-77
2021/03/03 11:41:47;;;;;;;;;;;;;;;2.76;100.00;101876.09;5104886;28;19924;-78
2021/03/03 11:44:13;;;;;;;;;;;;;;;2.82;100.00;101865.75;5091116;28;19939;-77
2021/03/03 11:46:40;;;;;;;;;;;;;;;2.85;100.00;101877.03;5109481;28;19924;-77
2021/03/03 11:49:06;;;;;;;;;;;;;;;2.93;100.00;101873.56;5103376;28;19928;-75
2021/03/03 11:51:33;;;;;;;;;;;;;;;3.20;100.00;101870.00;5099084;28;19932;-76
2021/03/03 11:54:07;;;;;;;;;;;;;;;3.43;100.00;101855.13;5104520;28;19935;-76
2021/03/03 11:56:34;;;;;;;;;;;;;;;3.56;100.00;101848.75;5109085;28;19950;-76
2021/03/03 11:59:00;;;;;;;;;;;;;;;3.73;100.00;101822.09;5109431;28;19924;-76
2021/03/03 12:01:28;;;;;;;;;;;;;;;3.63;100.00;101771.75;5108447;28;20018;-77
2021/03/03 12:03:54;;;;;;;;;;;;;;;3.40;100.00;101728.59;5102547;28;19923;-77
2021/03/03 12:06:21;;;;;;;;;;;;;;;3.76;100.00;101710.00;5109211;28;19923;-77
2021/03/03 12:08:50;;;;;;;;;;;;;;;3.87;100.00;101661.63;5109470;28;19924;-77
2021/03/03 12:11:16;;;;;;;;;;;;;;;4.14;100.00;101611.59;5074037;28;19934;-78
2021/03/03 12:13:43;;;;;;;;;;;;;;;4.06;100.00;101548.75;5085405;28;19924;-79
2021/03/03 12:16:09;;;;;;;;;;;;;;;4.10;100.00;101494.41;5113586;28;19928;-79
2021/03/03 12:18:37;;;;;;;;;;;;;;;4.08;100.00;101413.66;5112775;28;20006;-79
2021/03/03 12:21:04;;;;;;;;;;;;;;;4.19;100.00;101384.53;5113805;28;20374;-81
2021/03/03 12:23:31;;;;;;;;;;;;;;;4.26;100.00;101354.41;5078066;28;20726;-83
2021/03/03 12:25:57;;;;;;;;;;;;;;;4.30;100.00;101330.47;5103270;28;19989;-80
2021/03/03 12:28:24;;;;;;;;;;;;;;;4.43;100.00;101312.88;5110695;28;20643;-79
2021/03/03 12:30:50;;;;;;;;;;;;;;;4.44;100.00;101278.50;5113268;28;19924;-80
2021/03/03 12:33:18;;;;;;;;;;;;;;;4.26;100.00;101254.78;5107645;28;20432;-79
2021/03/03 12:35:45;;;;;;;;;;;;;;;4.28;100.00;101235.91;5113719;28;19924;-80
2021/03/03 12:38:12;;;;;;;;;;;;;;;4.04;100.00;101201.59;5113070;28;19928;-79
2021/03/03 12:40:38;;;;;;;;;;;;;;;3.62;100.00;101172.88;5113110;28;19928;-80
2021/03/03 12:43:05;;;;;;;;;;;;;;;3.88;100.00;101170.88;5107583;28;19924;-79